createdAt,value
2023-03-17T00:00:10.343Z,509.00
2023-03-17T00:01:10.331Z,506.00
2023-03-17T00:02:10.380Z,504.00
2023-03-17T00:03:10.347Z,508.00
2023-03-17T00:04:10.325Z,505.00
2023-03-17T00:05:10.324Z,511.00
2023-03-17T00:06:10.323Z,506.00
2023-03-17T00:07:10.329Z,505.00
2023-03-17T00:08:10.316Z,501.00
2023-03-17T00:09:10.311Z,510.00
2023-03-17T00:10:10.319Z,501.00
2023-03-17T00:11:10.320Z,506.00
2023-03-17T00:12:10.316Z,505.00
2023-03-17T00:13:10.300Z,502.00
2023-03-17T00:14:10.331Z,506.00
2023-03-17T00:15:10.306Z,503.00
2023-03-17T00:16:10.397Z,502.00
2023-03-17T00:17:10.338Z,507.00
2023-03-17T00:18:10.312Z,514.00
2023-03-17T00:19:10.327Z,502.00
2023-03-17T00:20:10.313Z,500.00
2023-03-17T00:21:10.314Z,508.00
2023-03-17T00:22:10.310Z,502.00
2023-03-17T00:23:10.300Z,510.00
2023-03-17T00:24:10.296Z,505.00
2023-03-17T00:25:10.302Z,501.00
2023-03-17T00:26:10.302Z,507.00
2023-03-17T00:27:10.303Z,500.00
2023-03-17T00:28:10.294Z,504.00
2023-03-17T00:29:10.286Z,506.00
2023-03-17T00:30:10.297Z,503.00
2023-03-17T00:31:10.345Z,507.00
2023-03-17T00:32:10.275Z,505.00
2023-03-17T00:33:10.264Z,511.00
2023-03-17T00:34:10.283Z,515.00
2023-03-17T00:35:10.273Z,509.00
2023-03-17T00:36:10.251Z,510.00
2023-03-17T00:37:10.252Z,504.00
2023-03-17T00:38:10.243Z,504.00
2023-03-17T00:39:10.240Z,506.00
2023-03-17T00:40:10.227Z,507.00
2023-03-17T00:41:10.222Z,509.00
2023-03-17T00:42:10.233Z,506.00
2023-03-17T00:43:10.221Z,510.00
2023-03-17T00:44:10.230Z,507.00
2023-03-17T00:45:10.217Z,510.00
2023-03-17T00:46:10.256Z,502.00
2023-03-17T00:47:10.245Z,512.00
2023-03-17T00:48:10.213Z,504.00
2023-03-17T00:49:10.230Z,513.00
2023-03-17T00:50:10.204Z,512.00
2023-03-17T00:51:10.221Z,503.00
2023-03-17T00:52:10.216Z,506.00
2023-03-17T00:53:10.280Z,504.00
2023-03-17T00:54:10.208Z,510.00
2023-03-17T00:55:10.235Z,506.00
2023-03-17T00:56:10.214Z,505.00
2023-03-17T00:57:10.206Z,507.00
2023-03-17T00:58:10.214Z,513.00
2023-03-17T00:59:10.206Z,506.00
2023-03-17T01:00:10.196Z,502.00
2023-03-17T01:01:10.200Z,506.00
2023-03-17T01:02:10.246Z,508.00
2023-03-17T01:03:10.193Z,512.00
2023-03-17T01:04:10.178Z,514.00
2023-03-17T01:05:10.188Z,503.00
2023-03-17T01:06:10.178Z,512.00
2023-03-17T01:07:10.177Z,512.00
2023-03-17T01:08:10.218Z,513.00
2023-03-17T01:09:10.186Z,505.00
2023-03-17T01:10:10.172Z,509.00
2023-03-17T01:11:10.170Z,508.00
2023-03-17T01:12:10.154Z,508.00
2023-03-17T01:13:10.158Z,503.00
2023-03-17T01:14:10.154Z,509.00
2023-03-17T01:15:10.154Z,501.00
2023-03-17T01:16:10.206Z,510.00
2023-03-17T01:17:10.150Z,509.00
2023-03-17T01:18:10.146Z,510.00
2023-03-17T01:19:10.149Z,504.00
2023-03-17T01:20:10.157Z,510.00
2023-03-17T01:21:10.142Z,507.00
2023-03-17T01:22:10.139Z,512.00
2023-03-17T01:23:10.138Z,508.00
2023-03-17T01:24:10.135Z,514.00
2023-03-17T01:25:10.148Z,508.00
2023-03-17T01:26:10.132Z,506.00
2023-03-17T01:27:10.133Z,507.00
2023-03-17T01:28:10.112Z,501.00
2023-03-17T01:29:10.122Z,507.00
2023-03-17T01:30:10.113Z,510.00
2023-03-17T01:31:10.149Z,511.00
2023-03-17T01:32:10.095Z,517.00
2023-03-17T01:33:10.111Z,508.00
2023-03-17T01:34:10.105Z,513.00
2023-03-17T01:35:10.116Z,512.00
2023-03-17T01:36:10.147Z,502.00
2023-03-17T01:37:10.092Z,511.00
2023-03-17T01:38:10.096Z,512.00
2023-03-17T01:39:10.087Z,510.00
2023-03-17T01:40:10.087Z,510.00
2023-03-17T01:41:10.087Z,507.00
2023-03-17T01:42:10.092Z,510.00
2023-03-17T01:43:10.092Z,500.00
2023-03-17T01:44:10.095Z,515.00
2023-03-17T01:45:10.101Z,508.00
2023-03-17T01:46:10.149Z,512.00
2023-03-17T01:47:10.082Z,512.00
2023-03-17T01:48:10.096Z,512.00
2023-03-17T01:49:10.076Z,512.00
2023-03-17T01:50:10.081Z,513.00
2023-03-17T01:51:10.072Z,515.00
2023-03-17T01:52:10.092Z,512.00
2023-03-17T01:53:10.088Z,514.00
2023-03-17T01:54:10.061Z,509.00
2023-03-17T01:55:10.055Z,503.00
2023-03-17T01:56:10.047Z,514.00
2023-03-17T01:57:10.055Z,511.00
2023-03-17T01:58:10.027Z,502.00
2023-03-17T01:59:10.033Z,509.00
2023-03-17T02:00:10.027Z,512.00
2023-03-17T02:01:10.039Z,505.00
2023-03-17T02:02:10.004Z,505.00
2023-03-17T02:03:10.006Z,511.00
2023-03-17T02:04:10.067Z,505.00
2023-03-17T02:05:09.994Z,507.00
2023-03-17T02:06:10.001Z,503.00
2023-03-17T02:07:09.980Z,508.00
2023-03-17T02:08:09.986Z,505.00
2023-03-17T02:09:09.980Z,500.00
2023-03-17T02:10:09.968Z,506.00
2023-03-17T02:11:09.972Z,505.00
2023-03-17T02:12:09.961Z,507.00
2023-03-17T02:13:09.953Z,508.00
2023-03-17T02:14:09.948Z,503.00
2023-03-17T02:15:09.949Z,507.00
2023-03-17T02:16:09.942Z,510.00
2023-03-17T02:17:09.930Z,507.00
2023-03-17T02:18:09.938Z,512.00
2023-03-17T02:19:09.929Z,510.00
2023-03-17T02:20:09.916Z,514.00
2023-03-17T02:21:09.919Z,508.00
2023-03-17T02:22:09.912Z,516.00
2023-03-17T02:23:09.897Z,514.00
2023-03-17T02:24:09.896Z,507.00
2023-03-17T02:25:09.878Z,511.00
2023-03-17T02:26:09.875Z,507.00
2023-03-17T02:27:09.855Z,507.00
2023-03-17T02:28:09.861Z,508.00
2023-03-17T02:29:09.851Z,505.00
2023-03-17T02:30:09.828Z,509.00
2023-03-17T02:31:09.822Z,510.00
2023-03-17T02:32:09.821Z,508.00
2023-03-17T02:33:09.897Z,510.00
2023-03-17T02:34:09.806Z,508.00
2023-03-17T02:35:09.798Z,514.00
2023-03-17T02:36:09.866Z,512.00
2023-03-17T02:37:09.788Z,509.00
2023-03-17T02:38:09.786Z,511.00
2023-03-17T02:39:09.782Z,508.00
2023-03-17T02:40:09.772Z,503.00
2023-03-17T02:41:09.799Z,506.00
2023-03-17T02:42:09.765Z,504.00
2023-03-17T02:43:09.786Z,505.00
2023-03-17T02:44:09.790Z,501.00
2023-03-17T02:45:09.774Z,509.00
2023-03-17T02:46:09.800Z,512.00
2023-03-17T02:47:09.743Z,509.00
2023-03-17T02:48:09.744Z,508.00
2023-03-17T02:49:09.741Z,506.00
2023-03-17T02:50:09.727Z,506.00
2023-03-17T02:51:09.734Z,507.00
2023-03-17T02:52:09.725Z,513.00
2023-03-17T02:53:09.727Z,509.00
2023-03-17T02:54:09.729Z,505.00
2023-03-17T02:55:09.714Z,506.00
2023-03-17T02:56:09.720Z,512.00
2023-03-17T02:57:09.768Z,510.00
2023-03-17T02:58:09.721Z,502.00
2023-03-17T02:59:09.767Z,507.00
2023-03-17T03:00:09.711Z,508.00
2023-03-17T03:01:09.804Z,507.00
2023-03-17T03:02:09.761Z,503.00
2023-03-17T03:03:09.713Z,509.00
2023-03-17T03:04:09.729Z,513.00
2023-03-17T03:05:09.736Z,513.00
2023-03-17T03:06:09.713Z,514.00
2023-03-17T03:07:09.709Z,514.00
2023-03-17T03:08:09.705Z,509.00
2023-03-17T03:09:09.704Z,511.00
2023-03-17T03:10:09.710Z,514.00
2023-03-17T03:11:09.703Z,506.00
2023-03-17T03:12:09.714Z,511.00
2023-03-17T03:13:09.684Z,512.00
2023-03-17T03:14:09.688Z,513.00
2023-03-17T03:15:09.679Z,513.00
2023-03-17T03:16:09.719Z,510.00
2023-03-17T03:17:09.683Z,508.00
2023-03-17T03:18:09.664Z,511.00
2023-03-17T03:19:09.662Z,511.00
2023-03-17T03:20:09.665Z,505.00
2023-03-17T03:21:09.673Z,506.00
2023-03-17T03:22:09.647Z,505.00
2023-03-17T03:23:09.643Z,511.00
2023-03-17T03:24:09.634Z,509.00
2023-03-17T03:25:09.633Z,512.00
2023-03-17T03:26:09.620Z,509.00
2023-03-17T03:27:09.618Z,506.00
2023-03-17T03:28:09.609Z,503.00
2023-03-17T03:29:09.604Z,511.00
2023-03-17T03:30:09.609Z,508.00
2023-03-17T03:31:09.650Z,508.00
2023-03-17T03:32:09.602Z,509.00
2023-03-17T03:33:09.597Z,504.00
2023-03-17T03:34:09.607Z,510.00
2023-03-17T03:35:09.584Z,512.00
2023-03-17T03:36:09.607Z,505.00
2023-03-17T03:37:09.565Z,510.00
2023-03-17T03:38:09.566Z,505.00
2023-03-17T03:39:09.573Z,505.00
2023-03-17T03:40:09.561Z,505.00
2023-03-17T03:41:09.555Z,506.00
2023-03-17T03:42:09.552Z,506.00
2023-03-17T03:43:21.789Z,508.00
2023-03-17T03:44:10.571Z,506.00
2023-03-17T03:45:09.556Z,506.00
2023-03-17T03:46:09.618Z,506.00
2023-03-17T03:47:09.562Z,507.00
2023-03-17T03:48:09.568Z,509.00
2023-03-17T03:49:09.565Z,514.00
2023-03-17T03:50:09.568Z,504.00
2023-03-17T03:51:09.558Z,506.00
2023-03-17T03:52:09.560Z,506.00
2023-03-17T03:53:09.552Z,504.00
2023-03-17T03:54:09.559Z,516.00
2023-03-17T03:55:09.564Z,511.00
2023-03-17T03:56:09.576Z,509.00
2023-03-17T03:57:09.556Z,510.00
2023-03-17T03:58:09.557Z,507.00
2023-03-17T03:59:09.552Z,509.00
2023-03-17T04:00:09.562Z,508.00
2023-03-17T04:01:09.558Z,501.00
2023-03-17T04:02:09.832Z,509.00
2023-03-17T04:03:09.590Z,510.00
2023-03-17T04:04:09.555Z,510.00
2023-03-17T04:05:09.559Z,507.00
2023-03-17T04:06:09.541Z,513.00
2023-03-17T04:07:09.526Z,505.00
2023-03-17T04:08:09.528Z,508.00
2023-03-17T04:09:09.531Z,500.00
2023-03-17T04:10:09.548Z,506.00
2023-03-17T04:11:09.536Z,511.00
2023-03-17T04:12:09.538Z,511.00
2023-03-17T04:13:09.524Z,510.00
2023-03-17T04:14:09.533Z,509.00
2023-03-17T04:15:09.537Z,503.00
2023-03-17T04:16:09.591Z,513.00
2023-03-17T04:17:09.514Z,511.00
2023-03-17T04:18:09.529Z,511.00
2023-03-17T04:19:09.578Z,505.00
2023-03-17T04:20:09.519Z,504.00
2023-03-17T04:21:09.516Z,510.00
2023-03-17T04:22:09.523Z,511.00
2023-03-17T04:23:09.509Z,508.00
2023-03-17T04:24:09.513Z,507.00
2023-03-17T04:25:09.518Z,503.00
2023-03-17T04:26:09.531Z,503.00
2023-03-17T04:27:09.530Z,502.00
2023-03-17T04:28:09.537Z,509.00
2023-03-17T04:29:09.533Z,508.00
2023-03-17T04:30:09.537Z,501.00
2023-03-17T04:31:09.622Z,510.00
2023-03-17T04:32:09.557Z,507.00
2023-03-17T04:33:09.584Z,501.00
2023-03-17T04:34:09.567Z,510.00
2023-03-17T04:35:09.539Z,508.00
2023-03-17T04:36:09.595Z,510.00
2023-03-17T04:37:09.543Z,510.00
2023-03-17T04:38:09.549Z,505.00
2023-03-17T04:39:09.548Z,513.00
2023-03-17T04:40:09.551Z,507.00
2023-03-17T04:41:09.552Z,509.00
2023-03-17T04:42:09.552Z,507.00
2023-03-17T04:43:09.565Z,513.00
2023-03-17T04:44:09.552Z,507.00
2023-03-17T04:45:09.559Z,500.00
2023-03-17T04:46:09.574Z,505.00
2023-03-17T04:47:09.538Z,503.00
2023-03-17T04:48:09.548Z,504.00
2023-03-17T04:49:09.556Z,508.00
2023-03-17T04:50:09.564Z,506.00
2023-03-17T04:51:11.663Z,505.00
2023-03-17T04:52:09.543Z,514.00
2023-03-17T04:53:09.536Z,506.00
2023-03-17T04:54:09.538Z,505.00
2023-03-17T04:55:09.586Z,510.00
2023-03-17T04:56:09.553Z,508.00
2023-03-17T04:57:09.549Z,500.00
2023-03-17T04:58:11.767Z,509.00
2023-03-17T04:59:09.565Z,509.00
2023-03-17T05:00:09.576Z,509.00
2023-03-17T05:01:09.627Z,510.00
2023-03-17T05:02:09.639Z,511.00
2023-03-17T05:03:25.791Z,512.00
2023-03-17T05:04:12.774Z,509.00
2023-03-17T05:05:10.586Z,509.00
2023-03-17T05:06:09.599Z,511.00
2023-03-17T05:07:09.605Z,512.00
2023-03-17T05:08:09.595Z,506.00
2023-03-17T05:09:09.592Z,512.00
2023-03-17T05:10:09.621Z,509.00
2023-03-17T05:11:09.615Z,511.00
2023-03-17T05:12:09.608Z,510.00
2023-03-17T05:13:09.606Z,509.00
2023-03-17T05:14:09.610Z,510.00
2023-03-17T05:15:09.632Z,509.00
2023-03-17T05:16:09.701Z,511.00
2023-03-17T05:17:09.616Z,510.00
2023-03-17T05:18:09.605Z,512.00
2023-03-17T05:19:09.612Z,509.00
2023-03-17T05:20:09.610Z,507.00
2023-03-17T05:21:09.624Z,503.00
2023-03-17T05:22:09.774Z,504.00
2023-03-17T05:23:09.611Z,507.00
2023-03-17T05:24:09.622Z,508.00
2023-03-17T05:25:09.621Z,504.00
2023-03-17T05:26:09.621Z,510.00
2023-03-17T05:27:09.768Z,507.00
2023-03-17T05:28:09.613Z,512.00
2023-03-17T05:29:09.605Z,512.00
2023-03-17T05:30:09.613Z,512.00
2023-03-17T05:31:11.181Z,503.00
2023-03-17T05:32:09.712Z,510.00
2023-03-17T05:33:09.625Z,509.00
2023-03-17T05:34:09.633Z,508.00
2023-03-17T05:35:09.606Z,503.00
2023-03-17T05:36:09.691Z,507.00
2023-03-17T05:37:09.673Z,506.00
2023-03-17T05:38:09.608Z,506.00
2023-03-17T05:39:09.612Z,511.00
2023-03-17T05:40:09.619Z,502.00
2023-03-17T05:41:09.610Z,503.00
2023-03-17T05:42:09.694Z,503.00
2023-03-17T05:43:09.611Z,505.00
2023-03-17T05:44:09.617Z,504.00
2023-03-17T05:45:09.612Z,504.00
2023-03-17T05:46:09.648Z,500.00
2023-03-17T05:47:09.636Z,506.00
2023-03-17T05:48:09.645Z,511.00
2023-03-17T05:49:09.651Z,510.00
2023-03-17T05:50:09.650Z,508.00
2023-03-17T05:51:09.651Z,502.00
2023-03-17T05:52:09.694Z,509.00
2023-03-17T05:53:09.652Z,511.00
2023-03-17T05:54:09.662Z,509.00
2023-03-17T05:55:09.662Z,506.00
2023-03-17T05:56:09.678Z,507.00
2023-03-17T05:57:09.668Z,506.00
2023-03-17T05:58:09.678Z,507.00
2023-03-17T05:59:09.662Z,510.00
2023-03-17T06:00:11.707Z,502.00
2023-03-17T06:01:09.701Z,510.00
2023-03-17T06:02:09.745Z,508.00
2023-03-17T06:03:09.705Z,509.00
2023-03-17T06:04:09.677Z,506.00
2023-03-17T06:05:09.705Z,509.00
2023-03-17T06:06:09.691Z,505.00
2023-03-17T06:07:09.683Z,504.00
2023-03-17T06:08:09.695Z,509.00
2023-03-17T06:09:09.694Z,510.00
2023-03-17T06:10:09.687Z,512.00
2023-03-17T06:11:09.689Z,515.00
2023-03-17T06:12:09.697Z,511.00
2023-03-17T06:13:09.719Z,512.00
2023-03-17T06:14:09.691Z,513.00
2023-03-17T06:15:09.704Z,512.00
2023-03-17T06:16:09.805Z,509.00
2023-03-17T06:17:09.709Z,510.00
2023-03-17T06:18:09.708Z,511.00
2023-03-17T06:19:09.702Z,511.00
2023-03-17T06:20:09.714Z,507.00
2023-03-17T06:21:09.700Z,508.00
2023-03-17T06:22:09.715Z,510.00
2023-03-17T06:23:09.773Z,508.00
2023-03-17T06:24:09.752Z,508.00
2023-03-17T06:25:09.725Z,507.00
2023-03-17T06:26:09.746Z,506.00
2023-03-17T06:27:09.753Z,510.00
2023-03-17T06:28:09.798Z,512.00
2023-03-17T06:29:09.794Z,512.00
2023-03-17T06:30:09.777Z,513.00
2023-03-17T06:31:09.814Z,514.00
2023-03-17T06:32:20.444Z,512.00
2023-03-17T06:33:10.838Z,512.00
2023-03-17T06:34:09.784Z,513.00
2023-03-17T06:35:09.784Z,513.00
2023-03-17T06:36:09.798Z,513.00
2023-03-17T06:37:09.770Z,513.00
2023-03-17T06:38:09.795Z,513.00
2023-03-17T06:39:09.786Z,507.00
2023-03-17T06:40:09.771Z,502.00
2023-03-17T06:41:09.766Z,504.00
2023-03-17T06:42:09.826Z,500.00
2023-03-17T06:43:09.759Z,495.00
2023-03-17T06:44:09.770Z,400.00
2023-03-17T06:45:09.771Z,400.00
2023-03-17T06:46:09.802Z,400.00
2023-03-17T06:47:09.791Z,400.00
2023-03-17T06:54:09.934Z,400.00
2023-03-17T06:57:09.975Z,400.00
2023-03-17T07:36:10.645Z,717.00
2023-03-17T08:28:11.129Z,1886.00
2023-03-17T08:29:11.106Z,1795.00
2023-03-17T08:30:11.111Z,1813.00
2023-03-17T08:31:12.582Z,1883.00
2023-03-17T08:32:11.135Z,1857.00
2023-03-17T08:33:11.232Z,1853.00
2023-03-17T08:34:11.138Z,1929.00
2023-03-17T08:35:11.141Z,2055.00
2023-03-17T08:36:11.151Z,2259.00
2023-03-17T08:37:11.643Z,2442.00
2023-03-17T08:38:11.176Z,2632.00
2023-03-17T08:39:11.182Z,2803.00
2023-03-17T08:40:11.188Z,2624.00
2023-03-17T08:42:11.189Z,2367.00
2023-03-17T08:43:11.194Z,2431.00
2023-03-17T08:44:11.197Z,2378.00
2023-03-17T08:45:11.195Z,2319.00
2023-03-17T08:46:11.224Z,2339.00
2023-03-17T08:47:11.239Z,2289.00
2023-03-17T08:48:11.244Z,2350.00
2023-03-17T08:49:11.243Z,2277.00
2023-03-17T08:50:11.234Z,2176.00
2023-03-17T08:51:11.239Z,2106.00
2023-03-17T08:52:11.234Z,1940.00
2023-03-17T08:53:11.240Z,1816.00
2023-03-17T08:54:11.782Z,1842.00
2023-03-17T08:55:11.243Z,1831.00
2023-03-17T08:56:11.310Z,1821.00
2023-03-17T08:57:11.252Z,1642.00
2023-03-17T12:06:10.004Z,4075.00
2023-03-17T12:07:09.926Z,4046.00
2023-03-17T12:08:09.913Z,4040.00
2023-03-17T12:09:09.873Z,4009.00
2023-03-17T12:10:09.911Z,4021.00
2023-03-17T12:11:09.916Z,4074.00
2023-03-17T12:12:09.842Z,4100.00
2023-03-17T12:13:09.803Z,4140.00
2023-03-17T12:14:09.824Z,4156.00
2023-03-17T12:15:09.756Z,4196.00
2023-03-17T12:17:09.711Z,4252.00
2023-03-17T12:20:09.657Z,4380.00
2023-03-17T12:21:09.605Z,4394.00
2023-03-17T12:23:09.586Z,4301.00
2023-03-17T12:24:09.561Z,4287.00
2023-03-17T12:25:09.532Z,4259.00
2023-03-17T12:26:09.529Z,4198.00
2023-03-17T12:27:09.505Z,4209.00
2023-03-17T12:28:09.471Z,4189.00
2023-03-17T12:29:09.501Z,4210.00
2023-03-17T12:30:09.578Z,4430.00
2023-03-17T12:31:09.439Z,4512.00
2023-03-17T12:32:09.420Z,4576.00
2023-03-17T12:33:09.417Z,4653.00
2023-03-17T12:34:09.340Z,4715.00
2023-03-17T12:35:09.323Z,4758.00
2023-03-17T12:36:09.328Z,4801.00
2023-03-17T12:37:09.256Z,4849.00
2023-03-17T12:38:09.250Z,4876.00
2023-03-17T12:39:09.289Z,4874.00
2023-03-17T12:40:09.185Z,4882.00
2023-03-17T12:41:09.169Z,4909.00
2023-03-17T12:42:09.173Z,4906.00
2023-03-17T12:43:09.132Z,4899.00
2023-03-17T12:44:09.127Z,4903.00
2023-03-17T12:45:09.070Z,4911.00
2023-03-17T12:46:09.163Z,4930.00
2023-03-17T12:47:09.042Z,4945.00
2023-03-17T12:48:09.018Z,4943.00
2023-03-17T12:49:09.037Z,4950.00
2023-03-17T12:50:08.972Z,4952.00
2023-03-17T12:51:08.985Z,4950.00
2023-03-17T12:52:08.946Z,4952.00
2023-03-17T12:53:08.867Z,4955.00
2023-03-17T12:54:08.876Z,4975.00
2023-03-17T12:55:08.841Z,4987.00
2023-03-17T12:56:08.822Z,4987.00
2023-03-17T12:57:08.790Z,4999.00
2023-03-17T12:58:08.783Z,5002.00
2023-03-17T12:59:08.766Z,4996.00
2023-03-17T13:00:08.734Z,5006.00
2023-03-17T13:01:08.915Z,5005.00
2023-03-17T13:02:08.685Z,4998.00
2023-03-17T13:03:08.711Z,4997.00
2023-03-17T13:04:08.675Z,5003.00
2023-03-17T13:05:08.647Z,4995.00
2023-03-17T13:06:08.661Z,5000.00
2023-03-17T13:07:08.669Z,4997.00
2023-03-17T13:08:08.624Z,4993.00
2023-03-17T13:09:08.625Z,4990.00
2023-03-17T13:10:08.589Z,4992.00
2023-03-17T13:11:08.559Z,4985.00
2023-03-17T13:12:08.542Z,4985.00
2023-03-17T13:13:08.531Z,4990.00
2023-03-17T13:14:08.494Z,4979.00
2023-03-17T13:15:08.468Z,4973.00
2023-03-17T13:16:08.471Z,4973.00
2023-03-17T13:17:08.434Z,4966.00
2023-03-17T13:18:08.436Z,4961.00
2023-03-17T13:19:08.400Z,4962.00
2023-03-17T13:20:08.447Z,4963.00
2023-03-17T13:21:08.364Z,4963.00
2023-03-17T13:22:08.342Z,4961.00
2023-03-17T13:23:08.341Z,4958.00
2023-03-17T13:24:08.312Z,4958.00
2023-03-17T13:25:08.284Z,4946.00
2023-03-17T13:26:08.294Z,4950.00
2023-03-17T13:27:08.254Z,4935.00
2023-03-17T13:28:10.401Z,4939.00
2023-03-17T13:29:08.208Z,4929.00
2023-03-17T13:30:08.223Z,4917.00
2023-03-17T13:31:08.201Z,4920.00
2023-03-17T13:32:08.151Z,4910.00
2023-03-17T13:33:08.273Z,4909.00
2023-03-17T13:34:08.089Z,4901.00
2023-03-17T13:35:08.099Z,4895.00
2023-03-17T13:36:08.099Z,4882.00
2023-03-17T13:37:08.044Z,4869.00
2023-03-17T13:38:08.016Z,4866.00
2023-03-17T13:39:18.781Z,4861.00
2023-03-17T13:40:10.851Z,4862.00
2023-03-17T13:41:07.964Z,4865.00
2023-03-17T13:42:17.636Z,4864.00
2023-03-17T13:43:08.920Z,4863.00
2023-03-17T13:44:07.929Z,4864.00
2023-03-17T13:45:07.861Z,4865.00
2023-03-17T13:46:09.240Z,4860.00
2023-03-17T13:47:07.837Z,4853.00
2023-03-17T13:48:07.803Z,4847.00
2023-03-17T13:49:07.803Z,4838.00
2023-03-17T13:50:07.785Z,4837.00
2023-03-17T13:51:07.744Z,4828.00
2023-03-17T13:52:07.741Z,4809.00
2023-03-17T13:53:07.706Z,4809.00
2023-03-17T22:27:04.949Z,2839.00
2023-03-17T22:28:04.925Z,2839.00
2023-03-17T22:29:04.930Z,2832.00
2023-03-17T22:30:04.979Z,2824.00
2023-03-17T22:31:04.921Z,2825.00
2023-03-17T22:32:04.970Z,2826.00
2023-03-17T22:33:04.968Z,2825.00
2023-03-17T22:34:04.918Z,2833.00
2023-03-17T22:35:04.918Z,2824.00
2023-03-17T22:36:04.961Z,2814.00
2023-03-17T22:37:04.927Z,2802.00
2023-03-17T22:38:04.924Z,2810.00
2023-03-17T22:39:04.928Z,2823.00
2023-03-17T22:40:04.921Z,2802.00
2023-03-17T22:41:04.933Z,2810.00
2023-03-17T22:42:04.942Z,2799.00
2023-03-17T22:43:04.929Z,2795.00
2023-03-17T22:44:04.935Z,2800.00
2023-03-17T22:45:04.928Z,2801.00
2023-03-17T22:46:05.111Z,2800.00
2023-03-17T22:47:04.948Z,2802.00
2023-03-17T22:48:04.928Z,2798.00
2023-03-17T22:49:04.940Z,2795.00
2023-03-17T22:50:04.924Z,2783.00
2023-03-17T22:51:04.922Z,2776.00
2023-03-17T22:52:04.928Z,2780.00
2023-03-17T22:53:04.927Z,2776.00
2023-03-17T22:54:04.961Z,2768.00
2023-03-17T22:55:04.946Z,2777.00
2023-03-17T22:56:04.972Z,2775.00
2023-03-17T22:57:05.700Z,2765.00
2023-03-17T22:58:04.956Z,2768.00
2023-03-17T22:59:04.973Z,2752.00
2023-03-17T23:00:04.936Z,2761.00
2023-03-17T23:01:04.966Z,2764.00
2023-03-17T23:02:04.966Z,2747.00
2023-03-17T23:03:04.949Z,2757.00
2023-03-17T23:04:04.941Z,2746.00
2023-03-17T23:05:04.957Z,2744.00
2023-03-17T23:06:04.947Z,2741.00
2023-03-17T23:07:04.964Z,2758.00
2023-03-17T23:08:04.977Z,2731.00
2023-03-17T23:09:04.978Z,2732.00
2023-03-17T23:10:04.950Z,2749.00
2023-03-17T23:11:04.954Z,2733.00
2023-03-17T23:12:04.940Z,2719.00
2023-03-17T23:13:04.945Z,2729.00
2023-03-17T23:14:04.932Z,2730.00
2023-03-17T23:15:04.991Z,2728.00
2023-03-17T23:16:04.942Z,2719.00
2023-03-17T23:17:04.970Z,2719.00
2023-03-17T23:18:04.919Z,2710.00
2023-03-17T23:19:04.920Z,2711.00
2023-03-17T23:20:04.926Z,2712.00
2023-03-17T23:21:04.918Z,2714.00
2023-03-17T23:22:04.924Z,2716.00
2023-03-17T23:23:04.910Z,2720.00
2023-03-17T23:24:04.929Z,2705.00
2023-03-17T23:25:04.917Z,2705.00
2023-03-17T23:26:04.913Z,2709.00
2023-03-17T23:27:04.944Z,2706.00
2023-03-17T23:28:04.908Z,2716.00
2023-03-17T23:29:04.919Z,2710.00
2023-03-17T23:30:04.910Z,2693.00
2023-03-17T23:31:04.948Z,2713.00
2023-03-17T23:32:04.944Z,2703.00
2023-03-17T23:33:05.129Z,2689.00
2023-03-17T23:34:04.923Z,2684.00
2023-03-17T23:35:04.911Z,2699.00
2023-03-17T23:36:04.910Z,2678.00
2023-03-17T23:37:04.932Z,2693.00
2023-03-17T23:38:04.927Z,2673.00
2023-03-17T23:39:04.927Z,2682.00
2023-03-17T23:40:04.997Z,2666.00
2023-03-17T23:41:04.930Z,2670.00
2023-03-17T23:42:04.953Z,2680.00
2023-03-17T23:43:04.951Z,2663.00
2023-03-17T23:44:04.932Z,2677.00
2023-03-17T23:45:04.947Z,2666.00
2023-03-17T23:46:04.966Z,2655.00
2023-03-17T23:47:04.947Z,2664.00
2023-03-17T23:48:04.945Z,2677.00
2023-03-17T23:49:04.958Z,2658.00
2023-03-17T23:50:04.952Z,2643.00
2023-03-17T23:51:04.948Z,2653.00
2023-03-17T23:52:04.941Z,2657.00
2023-03-17T23:53:04.964Z,2642.00
2023-03-17T23:54:04.961Z,2640.00
2023-03-17T23:55:05.011Z,2641.00
2023-03-17T23:56:04.990Z,2643.00
2023-03-17T23:57:04.969Z,2642.00
2023-03-17T23:58:04.994Z,2644.00
2023-03-17T23:59:04.972Z,2653.00
